createdAt,value
2023-01-05T00:00:34.440Z,4.77
2023-01-05T00:01:34.425Z,4.65
2023-01-05T00:02:34.448Z,4.66
2023-01-05T00:03:34.432Z,4.70
2023-01-05T00:04:34.477Z,4.70
2023-01-05T00:05:34.453Z,4.80
2023-01-05T00:06:34.476Z,4.85
2023-01-05T00:07:34.459Z,4.84
2023-01-05T00:08:37.426Z,4.85
2023-01-05T00:09:34.477Z,4.84
2023-01-05T00:10:34.485Z,4.89
2023-01-05T00:11:34.524Z,4.88
2023-01-05T00:12:34.514Z,4.88
2023-01-05T00:13:34.521Z,4.97
2023-01-05T00:14:34.513Z,5.00
2023-01-05T00:15:34.522Z,5.02
2023-01-05T00:16:34.591Z,4.91
2023-01-05T00:17:34.535Z,4.91
2023-01-05T00:18:34.543Z,4.96
2023-01-05T00:19:34.542Z,5.03
2023-01-05T00:20:34.559Z,5.04
2023-01-05T00:21:34.563Z,5.03
2023-01-05T00:22:34.719Z,5.00
2023-01-05T00:23:34.673Z,5.00
2023-01-05T00:24:34.582Z,5.06
2023-01-05T00:25:34.589Z,4.97
2023-01-05T00:26:34.596Z,4.99
2023-01-05T00:27:34.605Z,4.94
2023-01-05T00:28:34.617Z,5.02
2023-01-05T00:29:34.636Z,4.96
2023-01-05T00:30:34.632Z,4.91
2023-01-05T00:31:34.656Z,4.94
2023-01-05T00:32:34.658Z,4.86
2023-01-05T00:33:34.650Z,4.94
2023-01-05T00:34:34.656Z,4.85
2023-01-05T00:35:34.663Z,4.92
2023-01-05T00:36:34.674Z,4.82
2023-01-05T00:37:34.701Z,4.89
2023-01-05T00:38:34.689Z,4.84
2023-01-05T00:39:34.689Z,4.94
2023-01-05T00:40:34.722Z,4.96
2023-01-05T00:41:34.706Z,4.85
2023-01-05T00:42:34.716Z,4.88
2023-01-05T00:43:34.728Z,4.84
2023-01-05T00:44:34.733Z,4.97
2023-01-05T00:45:34.834Z,4.85
2023-01-05T00:46:34.742Z,4.92
2023-01-05T00:47:34.752Z,4.92
2023-01-05T00:48:34.761Z,4.99
2023-01-05T00:49:34.768Z,4.96
2023-01-05T00:50:34.790Z,5.02
2023-01-05T00:51:34.777Z,5.00
2023-01-05T00:52:34.785Z,5.02
2023-01-05T00:53:34.794Z,5.06
2023-01-05T00:54:34.832Z,4.99
2023-01-05T00:55:34.805Z,5.09
2023-01-05T00:56:34.823Z,5.07
2023-01-05T00:57:34.831Z,5.07
2023-01-05T00:58:34.831Z,5.13
2023-01-05T00:59:34.846Z,5.15
2023-01-05T01:00:34.847Z,5.12
2023-01-05T01:01:35.002Z,5.13
2023-01-05T01:02:34.920Z,5.20
2023-01-05T01:03:34.912Z,5.09
2023-01-05T01:04:34.874Z,5.20
2023-01-05T01:05:34.882Z,5.25
2023-01-05T01:06:34.891Z,5.31
2023-01-05T01:07:34.997Z,5.36
2023-01-05T01:08:34.904Z,5.36
2023-01-05T01:09:34.917Z,5.33
2023-01-05T01:10:34.947Z,5.27
2023-01-05T01:11:34.993Z,5.27
2023-01-05T01:12:34.949Z,5.33
2023-01-05T01:13:34.941Z,5.25
2023-01-05T01:14:34.948Z,5.36
2023-01-05T01:15:34.951Z,5.31
2023-01-05T01:16:35.057Z,5.31
2023-01-05T01:17:34.988Z,5.42
2023-01-05T01:18:34.977Z,5.40
2023-01-05T01:19:34.983Z,5.51
2023-01-05T01:20:35.002Z,5.53
2023-01-05T01:21:35.002Z,5.51
2023-01-05T01:22:35.005Z,5.51
2023-01-05T01:23:35.019Z,5.49
2023-01-05T01:24:35.023Z,5.53
2023-01-05T01:25:35.024Z,5.51
2023-01-05T01:26:35.036Z,5.42
2023-01-05T01:27:35.052Z,5.45
2023-01-05T01:28:35.055Z,5.39
2023-01-05T01:29:35.055Z,5.38
2023-01-05T01:30:35.127Z,5.38
2023-01-05T01:31:35.073Z,5.36
2023-01-05T01:32:35.083Z,5.40
2023-01-05T01:33:35.108Z,5.43
2023-01-05T01:34:35.097Z,5.38
2023-01-05T01:35:35.104Z,5.38
2023-01-05T01:36:35.113Z,5.45
2023-01-05T01:37:35.114Z,5.39
2023-01-05T01:38:35.127Z,5.38
2023-01-05T01:39:35.147Z,5.38
2023-01-05T01:40:35.162Z,5.43
2023-01-05T01:41:35.146Z,5.38
2023-01-05T01:42:35.158Z,5.43
2023-01-05T01:43:35.162Z,5.46
2023-01-05T01:44:35.174Z,5.38
2023-01-05T01:45:35.227Z,5.40
2023-01-05T01:46:35.186Z,5.36
2023-01-05T01:47:35.195Z,5.35
2023-01-05T01:48:35.204Z,5.35
2023-01-05T01:49:35.226Z,5.40
2023-01-05T01:50:35.228Z,5.38
2023-01-05T01:51:35.224Z,5.38
2023-01-05T01:52:35.233Z,5.46
2023-01-05T01:53:35.295Z,5.42
2023-01-05T01:54:35.264Z,5.40
2023-01-05T01:55:35.251Z,5.40
2023-01-05T01:56:35.271Z,5.35
2023-01-05T01:57:35.275Z,5.30
2023-01-05T01:58:35.278Z,5.36
2023-01-05T01:59:35.282Z,5.33
2023-01-05T02:00:35.299Z,5.31
2023-01-05T02:01:35.450Z,5.31
2023-01-05T02:02:35.436Z,5.36
2023-01-05T02:03:35.317Z,5.33
2023-01-05T02:04:35.391Z,5.36
2023-01-05T02:05:35.361Z,5.36
2023-01-05T02:06:35.337Z,5.36
2023-01-05T02:07:35.342Z,5.46
2023-01-05T02:08:35.373Z,5.42
2023-01-05T02:09:35.370Z,5.36
2023-01-05T02:10:35.390Z,5.27
2023-01-05T02:11:35.376Z,5.25
2023-01-05T02:12:35.408Z,5.24
2023-01-05T02:13:35.391Z,5.17
2023-01-05T02:14:35.415Z,5.18
2023-01-05T02:15:35.411Z,5.17
2023-01-05T02:16:35.493Z,5.10
2023-01-05T02:17:35.419Z,5.07
2023-01-05T02:18:35.447Z,5.03
2023-01-05T02:19:35.436Z,4.89
2023-01-05T02:20:35.452Z,4.77
2023-01-05T02:21:35.475Z,4.73
2023-01-05T02:22:35.463Z,4.70
2023-01-05T02:23:35.487Z,4.65
2023-01-05T02:24:35.481Z,4.63
2023-01-05T02:25:35.480Z,4.69
2023-01-05T02:26:35.491Z,4.67
2023-01-05T02:27:35.535Z,4.66
2023-01-05T02:28:35.575Z,4.65
2023-01-05T02:29:35.564Z,4.72
2023-01-05T02:30:35.624Z,4.70
2023-01-05T02:31:35.569Z,4.84
2023-01-05T02:32:35.578Z,4.78
2023-01-05T02:33:35.560Z,4.77
2023-01-05T02:34:35.565Z,4.80
2023-01-05T02:35:35.592Z,4.84
2023-01-05T02:36:35.569Z,4.94
2023-01-05T02:37:35.596Z,4.92
2023-01-05T02:38:35.602Z,4.89
2023-01-05T02:39:35.588Z,4.86
2023-01-05T02:40:35.602Z,4.84
2023-01-05T02:41:35.608Z,4.88
2023-01-05T02:42:35.714Z,4.85
2023-01-05T02:43:35.622Z,4.89
2023-01-05T02:44:35.627Z,4.89
2023-01-05T02:45:35.636Z,4.91
2023-01-05T02:46:35.714Z,4.88
2023-01-05T02:47:35.648Z,4.85
2023-01-05T02:48:35.658Z,4.94
2023-01-05T02:49:35.684Z,5.02
2023-01-05T02:50:35.681Z,5.10
2023-01-05T02:51:35.678Z,5.13
2023-01-05T02:52:35.694Z,5.04
2023-01-05T02:53:35.715Z,5.18
2023-01-05T02:54:35.712Z,5.10
2023-01-05T02:55:35.709Z,5.12
2023-01-05T02:56:35.756Z,5.21
2023-01-05T02:57:35.724Z,5.27
2023-01-05T02:58:35.745Z,5.15
2023-01-05T02:59:35.762Z,5.22
2023-01-05T03:00:35.768Z,5.24
2023-01-05T03:01:35.930Z,5.27
2023-01-05T03:02:36.057Z,5.24
2023-01-05T03:03:35.838Z,5.22
2023-01-05T03:04:35.782Z,5.17
2023-01-05T03:05:35.783Z,5.17
2023-01-05T03:06:35.813Z,5.15
2023-01-05T03:07:35.802Z,5.17
2023-01-05T03:08:35.811Z,5.10
2023-01-05T03:09:35.833Z,5.04
2023-01-05T03:10:35.826Z,5.03
2023-01-05T03:11:35.830Z,5.03
2023-01-05T03:12:35.866Z,4.99
2023-01-05T03:13:35.849Z,5.03
2023-01-05T03:14:35.864Z,5.06
2023-01-05T03:15:35.967Z,5.02
2023-01-05T03:16:35.929Z,5.02
2023-01-05T03:17:35.888Z,5.10
2023-01-05T03:18:35.905Z,5.07
2023-01-05T03:19:35.933Z,5.12
2023-01-05T03:20:35.913Z,5.06
2023-01-05T03:21:35.913Z,5.09
2023-01-05T03:22:35.926Z,5.02
2023-01-05T03:23:35.921Z,5.09
2023-01-05T03:24:35.930Z,5.13
2023-01-05T03:25:35.953Z,5.15
2023-01-05T03:26:35.955Z,5.17
2023-01-05T03:27:35.951Z,5.15
2023-01-05T03:28:35.965Z,5.09
2023-01-05T03:29:35.962Z,5.10
2023-01-05T03:30:35.994Z,5.18
2023-01-05T03:31:35.978Z,5.17
2023-01-05T03:32:35.990Z,5.15
2023-01-05T03:33:35.995Z,5.06
2023-01-05T03:34:36.017Z,5.07
2023-01-05T03:35:36.014Z,5.06
2023-01-05T03:36:36.018Z,5.06
2023-01-05T03:37:36.029Z,5.15
2023-01-05T03:38:36.042Z,5.06
2023-01-05T03:39:36.040Z,5.02
2023-01-05T03:40:36.061Z,5.04
2023-01-05T03:41:36.079Z,5.07
2023-01-05T03:42:36.071Z,5.03
2023-01-05T03:43:36.076Z,4.97
2023-01-05T03:44:36.103Z,5.06
2023-01-05T03:45:36.087Z,5.09
2023-01-05T03:46:36.170Z,4.99
2023-01-05T03:47:36.111Z,5.00
2023-01-05T03:48:36.115Z,5.02
2023-01-05T03:49:36.126Z,4.92
2023-01-05T03:50:36.130Z,4.91
2023-01-05T03:51:41.491Z,4.96
2023-01-05T03:52:36.139Z,4.96
2023-01-05T03:53:36.152Z,4.99
2023-01-05T03:54:36.154Z,4.96
2023-01-05T03:55:36.163Z,4.82
2023-01-05T03:56:36.192Z,4.75
2023-01-05T03:57:36.194Z,4.86
2023-01-05T03:58:36.284Z,4.72
2023-01-05T03:59:36.205Z,4.67
2023-01-05T04:00:36.202Z,4.65
2023-01-05T04:01:36.306Z,4.65
2023-01-05T04:02:36.465Z,4.67
2023-01-05T04:03:36.258Z,4.58
2023-01-05T04:04:36.224Z,4.55
2023-01-05T04:05:36.244Z,4.59
2023-01-05T04:06:36.252Z,4.59
2023-01-05T04:07:36.251Z,4.62
2023-01-05T04:08:36.255Z,4.52
2023-01-05T04:09:36.264Z,4.55
2023-01-05T04:10:36.294Z,4.52
2023-01-05T04:11:36.280Z,4.51
2023-01-05T04:12:36.284Z,4.52
2023-01-05T04:13:36.320Z,4.51
2023-01-05T04:14:36.298Z,4.54
2023-01-05T04:15:36.343Z,4.44
2023-01-05T04:16:36.373Z,4.45
2023-01-05T04:17:36.363Z,4.51
2023-01-05T04:18:36.334Z,4.42
2023-01-05T04:19:36.351Z,4.48
2023-01-05T04:20:36.347Z,4.40
2023-01-05T04:21:36.351Z,4.54
2023-01-05T04:22:36.390Z,4.44
2023-01-05T04:23:36.371Z,4.45
2023-01-05T04:24:36.372Z,4.51
2023-01-05T04:25:36.433Z,4.51
2023-01-05T04:26:36.390Z,4.54
2023-01-05T04:27:36.395Z,4.52
2023-01-05T04:28:36.404Z,4.51
2023-01-05T04:29:36.428Z,4.62
2023-01-05T04:30:36.417Z,4.51
2023-01-05T04:31:36.445Z,4.54
2023-01-05T04:32:36.529Z,4.52
2023-01-05T04:33:36.446Z,4.65
2023-01-05T04:34:36.445Z,4.62
2023-01-05T04:35:36.453Z,4.63
2023-01-05T04:36:36.482Z,4.63
2023-01-05T04:37:36.473Z,4.60
2023-01-05T04:38:36.475Z,4.67
2023-01-05T04:39:36.489Z,4.59
2023-01-05T04:40:36.485Z,4.67
2023-01-05T04:41:36.496Z,4.62
2023-01-05T04:42:36.508Z,4.54
2023-01-05T04:43:36.512Z,4.66
2023-01-05T04:44:36.523Z,4.54
2023-01-05T04:45:36.544Z,4.54
2023-01-05T04:46:36.556Z,4.58
2023-01-05T04:47:36.543Z,4.52
2023-01-05T04:48:36.542Z,4.54
2023-01-05T04:49:36.563Z,4.45
2023-01-05T04:50:36.560Z,4.48
2023-01-05T04:51:36.566Z,4.41
2023-01-05T04:52:36.576Z,4.50
2023-01-05T04:53:36.581Z,4.48
2023-01-05T04:54:36.589Z,4.44
2023-01-05T04:55:36.608Z,4.50
2023-01-05T04:56:36.608Z,4.48
2023-01-05T04:57:36.627Z,4.54
2023-01-05T04:58:36.622Z,4.50
2023-01-05T04:59:36.624Z,4.47
2023-01-05T05:00:36.628Z,4.30
2023-01-05T05:01:36.888Z,4.33
2023-01-05T05:02:36.813Z,4.30
2023-01-05T05:03:36.697Z,4.36
2023-01-05T05:04:36.664Z,4.40
2023-01-05T05:05:36.677Z,4.37
2023-01-05T05:06:36.672Z,4.30
2023-01-05T05:07:36.685Z,4.36
2023-01-05T05:08:36.690Z,4.40
2023-01-05T05:09:36.721Z,4.32
2023-01-05T05:10:36.702Z,4.37
2023-01-05T05:11:36.741Z,4.36
2023-01-05T05:12:36.759Z,4.47
2023-01-05T05:13:36.732Z,4.34
2023-01-05T05:14:36.734Z,4.37
2023-01-05T05:15:36.845Z,4.30
2023-01-05T05:16:36.744Z,4.37
2023-01-05T05:17:36.779Z,4.36
2023-01-05T05:18:36.762Z,4.42
2023-01-05T05:19:36.771Z,4.36
2023-01-05T05:20:36.771Z,4.48
2023-01-05T05:21:36.781Z,4.37
2023-01-05T05:22:36.785Z,4.47
2023-01-05T05:23:36.797Z,4.37
2023-01-05T05:24:36.806Z,4.34
2023-01-05T05:25:36.811Z,4.37
2023-01-05T05:26:36.814Z,4.41
2023-01-05T05:27:36.852Z,4.33
2023-01-05T05:28:36.844Z,4.47
2023-01-05T05:29:36.852Z,4.30
2023-01-05T05:30:36.844Z,4.34
2023-01-05T05:31:37.000Z,4.33
2023-01-05T05:32:42.371Z,4.33
2023-01-05T05:33:36.883Z,4.37
2023-01-05T05:34:36.874Z,4.27
2023-01-05T05:35:36.879Z,4.24
2023-01-05T05:36:36.888Z,4.24
2023-01-05T05:37:36.897Z,4.27
2023-01-05T05:38:36.900Z,4.22
2023-01-05T05:39:36.917Z,4.16
2023-01-05T05:40:36.913Z,3.91
2023-01-05T05:41:36.926Z,3.97
2023-01-05T05:42:36.929Z,3.91
2023-01-05T05:43:36.945Z,4.06
2023-01-05T05:44:36.941Z,4.06
2023-01-05T05:45:36.959Z,3.91
2023-01-05T05:46:37.069Z,3.96
2023-01-05T05:47:36.962Z,3.97
2023-01-05T05:48:36.967Z,4.02
2023-01-05T05:49:37.002Z,3.96
2023-01-05T05:50:36.979Z,4.05
2023-01-05T05:51:36.992Z,4.08
2023-01-05T05:52:36.989Z,4.12
2023-01-05T05:53:37.005Z,4.08
2023-01-05T05:54:37.005Z,4.14
2023-01-05T05:55:37.023Z,4.08
2023-01-05T05:56:37.129Z,4.05
2023-01-05T05:57:37.033Z,4.20
2023-01-05T05:58:37.033Z,4.32
2023-01-05T05:59:37.044Z,4.27
2023-01-05T06:00:37.060Z,4.22
2023-01-05T06:01:37.298Z,4.22
2023-01-05T06:02:37.205Z,4.22
2023-01-05T06:03:37.109Z,4.27
2023-01-05T06:04:37.116Z,4.33
2023-01-05T06:05:37.112Z,4.37
2023-01-05T06:06:37.082Z,4.42
2023-01-05T06:07:37.126Z,4.34
2023-01-05T06:08:37.098Z,4.34
2023-01-05T06:09:37.113Z,4.36
2023-01-05T06:10:37.114Z,4.32
2023-01-05T06:11:37.129Z,4.36
2023-01-05T06:12:37.137Z,4.27
2023-01-05T06:13:37.138Z,4.24
2023-01-05T06:14:37.143Z,4.26
2023-01-05T06:15:37.156Z,4.29
2023-01-05T06:16:37.227Z,4.29
2023-01-05T06:17:37.171Z,4.24
2023-01-05T06:18:37.167Z,4.32
2023-01-05T06:19:37.179Z,4.18
2023-01-05T06:20:37.188Z,4.26
2023-01-05T06:21:37.210Z,4.18
2023-01-05T06:22:37.196Z,4.18
2023-01-05T06:23:37.215Z,4.15
2023-01-05T06:24:37.210Z,4.05
2023-01-05T06:25:37.222Z,3.91
2023-01-05T06:26:37.223Z,3.91
2023-01-05T06:27:37.233Z,3.79
2023-01-05T06:28:37.247Z,3.75
2023-01-05T06:29:37.255Z,3.70
2023-01-05T06:30:37.265Z,3.62
2023-01-05T06:31:37.308Z,3.58
2023-01-05T06:32:37.266Z,3.58
2023-01-05T06:33:37.278Z,3.51
2023-01-05T06:34:37.279Z,3.48
2023-01-05T06:35:37.289Z,3.45
2023-01-05T06:36:37.321Z,3.47
2023-01-05T06:37:37.341Z,3.40
2023-01-05T06:38:37.321Z,3.40
2023-01-05T06:39:37.317Z,3.35
2023-01-05T06:40:37.331Z,3.42
2023-01-05T06:41:37.333Z,3.28
2023-01-05T06:42:37.332Z,3.48
2023-01-05T06:43:37.344Z,3.45
2023-01-05T06:44:37.361Z,3.45
2023-01-05T06:45:37.426Z,3.47
2023-01-05T06:46:37.365Z,3.40
2023-01-05T06:47:37.375Z,3.48
2023-01-05T06:48:37.375Z,3.51
2023-01-05T06:49:37.400Z,3.52
2023-01-05T06:50:37.394Z,3.48
2023-01-05T06:51:37.402Z,3.55
2023-01-05T06:52:37.409Z,3.50
2023-01-05T06:53:37.430Z,3.54
2023-01-05T06:54:37.419Z,3.58
2023-01-05T06:55:37.424Z,3.51
2023-01-05T06:56:37.429Z,3.52
2023-01-05T06:57:37.442Z,3.60
2023-01-05T06:58:37.438Z,3.58
2023-01-05T06:59:37.447Z,3.60
2023-01-05T07:00:37.490Z,3.54
2023-01-05T07:01:37.537Z,3.60
2023-01-05T07:02:37.466Z,3.60
2023-01-05T07:03:37.548Z,3.62
2023-01-05T07:04:37.495Z,3.60
2023-01-05T07:05:37.492Z,3.65
2023-01-05T07:06:37.492Z,3.48
2023-01-05T07:07:37.507Z,3.54
2023-01-05T07:08:37.512Z,3.50
2023-01-05T07:09:37.531Z,3.52
2023-01-05T07:10:37.516Z,3.66
2023-01-05T07:11:37.523Z,3.70
2023-01-05T07:12:37.540Z,3.61
2023-01-05T07:13:37.545Z,3.61
2023-01-05T07:14:37.540Z,3.73
2023-01-05T07:15:37.553Z,3.72
2023-01-05T07:16:37.632Z,3.76
2023-01-05T07:17:37.565Z,3.78
2023-01-05T07:18:37.571Z,3.79
2023-01-05T07:19:37.579Z,3.83
2023-01-05T07:20:37.582Z,3.88
2023-01-05T07:21:37.589Z,3.90
2023-01-05T07:22:37.596Z,3.93
2023-01-05T07:23:37.629Z,4.02
2023-01-05T07:24:37.612Z,3.93
2023-01-05T07:25:37.639Z,4.06
2023-01-05T07:26:37.632Z,4.04
2023-01-05T07:27:37.630Z,4.06
2023-01-05T07:28:37.690Z,4.11
2023-01-05T07:29:37.642Z,4.14
2023-01-05T07:30:37.657Z,4.12
2023-01-05T07:31:37.687Z,4.02
2023-01-05T07:32:37.698Z,4.00
2023-01-05T07:33:40.255Z,4.06
2023-01-05T07:34:37.674Z,4.02
2023-01-05T07:35:37.692Z,4.05
2023-01-05T07:36:37.688Z,4.06
2023-01-05T07:37:37.703Z,4.09
2023-01-05T07:38:37.705Z,4.09
2023-01-05T07:39:37.715Z,4.12
2023-01-05T07:40:37.717Z,4.20
2023-01-05T07:41:37.746Z,4.22
2023-01-05T07:42:37.730Z,4.22
2023-01-05T07:43:37.743Z,4.32
2023-01-05T07:44:37.750Z,4.22
2023-01-05T07:45:37.816Z,4.29
2023-01-05T07:46:37.766Z,4.34
2023-01-05T07:47:37.770Z,4.22
2023-01-05T07:48:37.773Z,4.34
2023-01-05T07:49:37.787Z,4.33
2023-01-05T07:50:37.789Z,4.36
2023-01-05T07:51:37.795Z,4.36
2023-01-05T07:52:37.819Z,4.41
2023-01-05T07:53:44.011Z,4.34
2023-01-05T07:54:37.848Z,4.42
2023-01-05T07:55:37.831Z,4.41
2023-01-05T07:56:37.839Z,4.29
2023-01-05T07:57:37.884Z,4.34
2023-01-05T07:58:37.847Z,4.30
2023-01-05T07:59:37.867Z,4.33
2023-01-05T08:00:37.878Z,4.30
2023-01-05T08:01:38.008Z,4.44
2023-01-05T08:02:37.916Z,4.47
2023-01-05T08:03:37.895Z,4.44
2023-01-05T08:04:37.962Z,4.36
2023-01-05T08:05:37.890Z,4.44
2023-01-05T08:06:37.926Z,4.34
2023-01-05T08:07:37.921Z,4.36
2023-01-05T08:08:37.917Z,4.36
2023-01-05T08:09:37.934Z,4.24
2023-01-05T08:10:37.930Z,4.23
2023-01-05T08:11:37.935Z,4.27
2023-01-05T08:12:37.943Z,4.09
2023-01-05T08:13:37.976Z,3.94
2023-01-05T08:14:37.971Z,3.98
2023-01-05T08:15:37.971Z,3.98
2023-01-05T08:16:37.992Z,3.87
2023-01-05T08:17:37.975Z,3.93
2023-01-05T08:18:37.987Z,3.93
2023-01-05T08:19:37.998Z,4.02
2023-01-05T08:20:38.020Z,4.04
2023-01-05T08:21:38.003Z,4.09
2023-01-05T08:22:38.033Z,4.08
2023-01-05T08:23:38.017Z,4.12
2023-01-05T08:24:38.029Z,4.09
2023-01-05T08:25:38.041Z,4.08
2023-01-05T08:26:38.085Z,4.09
2023-01-05T08:27:38.045Z,4.12
2023-01-05T08:28:38.058Z,4.06
2023-01-05T08:29:38.080Z,4.11
2023-01-05T08:30:38.072Z,4.14
2023-01-05T08:31:38.103Z,4.06
2023-01-05T08:32:38.089Z,4.18
2023-01-05T08:33:38.086Z,4.14
2023-01-05T08:34:38.119Z,4.09
2023-01-05T08:35:38.105Z,4.09
2023-01-05T08:36:38.117Z,4.09
2023-01-05T08:37:38.115Z,4.11
2023-01-05T08:38:38.128Z,4.09
2023-01-05T08:39:38.129Z,4.18
2023-01-05T08:40:38.147Z,4.14
2023-01-05T08:41:38.143Z,4.20
2023-01-05T08:42:38.158Z,4.20
2023-01-05T08:43:38.161Z,4.30
2023-01-05T08:44:38.175Z,4.30
2023-01-05T08:45:38.236Z,4.23
2023-01-05T08:46:38.196Z,4.24
2023-01-05T08:47:38.204Z,4.27
2023-01-05T08:48:38.195Z,4.24
2023-01-05T08:49:38.201Z,4.22
2023-01-05T08:50:38.209Z,4.36
2023-01-05T08:51:38.248Z,4.32
2023-01-05T08:52:38.226Z,4.34
2023-01-05T08:53:38.251Z,4.36
2023-01-05T08:54:38.237Z,4.34
2023-01-05T08:55:38.251Z,4.40
2023-01-05T08:56:39.430Z,4.41
2023-01-05T08:57:38.272Z,4.45
2023-01-05T08:58:38.265Z,4.30
2023-01-05T08:59:38.269Z,4.34
2023-01-05T09:00:38.280Z,4.44
2023-01-05T09:01:38.410Z,4.34
2023-01-05T09:02:38.572Z,4.41
2023-01-05T09:03:38.341Z,4.41
2023-01-05T09:04:38.320Z,4.40
2023-01-05T09:05:38.324Z,4.36
2023-01-05T09:06:38.324Z,4.40
2023-01-05T09:07:38.332Z,4.40
2023-01-05T09:08:38.334Z,4.47
2023-01-05T09:09:38.376Z,4.40
2023-01-05T09:10:38.358Z,4.30
2023-01-05T09:11:38.353Z,4.36
2023-01-05T09:12:38.370Z,4.30
2023-01-05T09:13:38.366Z,4.37
2023-01-05T09:14:38.477Z,4.36
2023-01-05T09:15:38.385Z,4.30
2023-01-05T09:17:38.529Z,4.40
2023-01-05T09:18:38.411Z,4.40
2023-01-05T09:19:38.453Z,4.40
2023-01-05T09:20:40.166Z,4.34
2023-01-05T09:21:38.434Z,4.44
2023-01-05T09:22:38.441Z,4.44
2023-01-05T09:23:38.437Z,4.42
2023-01-05T09:24:38.447Z,4.36
2023-01-05T09:25:38.450Z,4.36
2023-01-05T09:26:38.570Z,4.37
2023-01-05T09:27:38.495Z,4.42
2023-01-05T09:28:38.476Z,4.41
2023-01-05T09:29:38.486Z,4.32
2023-01-05T09:30:44.443Z,4.34
2023-01-05T09:31:38.535Z,4.33
2023-01-05T09:32:38.507Z,4.45
2023-01-05T09:33:38.620Z,4.40
2023-01-05T09:34:38.516Z,4.36
2023-01-05T09:35:38.533Z,4.37
2023-01-05T09:36:38.529Z,4.44
2023-01-05T09:37:38.646Z,4.45
2023-01-05T09:38:43.431Z,4.40
2023-01-05T09:39:38.546Z,4.48
2023-01-05T09:40:38.582Z,4.47
2023-01-05T09:41:38.568Z,4.42
2023-01-05T09:42:38.575Z,4.42
2023-01-05T09:43:38.576Z,4.36
2023-01-05T09:44:38.587Z,4.50
2023-01-05T09:45:38.646Z,4.58
2023-01-05T09:46:38.636Z,4.54
2023-01-05T09:47:38.602Z,4.59
2023-01-05T09:48:38.653Z,4.60
2023-01-05T09:49:38.737Z,4.63
2023-01-05T09:50:38.641Z,4.60
2023-01-05T09:51:38.637Z,4.52
2023-01-05T09:52:38.895Z,4.60
2023-01-05T09:53:38.655Z,4.51
2023-01-05T09:54:38.659Z,4.48
2023-01-05T09:55:38.683Z,4.55
2023-01-05T09:57:09.525Z,4.50
2023-01-05T09:57:38.675Z,4.47
2023-01-05T09:58:38.683Z,4.34
2023-01-05T09:59:38.693Z,4.42
2023-01-05T10:00:38.699Z,4.45
2023-01-05T10:01:38.801Z,4.62
2023-01-05T10:02:38.716Z,4.66
2023-01-05T10:04:02.917Z,4.55
2023-01-05T10:04:38.804Z,4.65
2023-01-05T10:05:38.983Z,4.66
2023-01-05T10:06:38.741Z,4.77
2023-01-05T10:07:38.750Z,4.73
2023-01-05T10:08:38.755Z,4.69
2023-01-05T10:09:38.756Z,4.67
2023-01-05T10:10:38.787Z,4.67
2023-01-05T10:11:38.772Z,4.77
2023-01-05T10:12:38.783Z,4.84
2023-01-05T10:13:38.786Z,4.88
2023-01-05T10:14:38.794Z,4.96
2023-01-05T10:15:38.893Z,4.96
2023-01-05T10:16:38.859Z,4.96
2023-01-05T10:17:42.451Z,4.96
2023-01-05T10:18:38.826Z,4.92
2023-01-05T10:19:38.831Z,4.99
2023-01-05T10:20:38.843Z,5.00
2023-01-05T10:21:38.964Z,5.06
2023-01-05T10:22:39.223Z,5.20
2023-01-05T10:23:38.855Z,5.27
2023-01-05T10:24:38.886Z,5.27
2023-01-05T10:25:38.878Z,5.31
2023-01-05T10:27:06.393Z,5.40
2023-01-05T10:27:38.885Z,5.39
2023-01-05T10:28:38.895Z,5.45
2023-01-05T10:29:38.914Z,5.35
2023-01-05T10:30:38.931Z,5.42
2023-01-05T10:31:38.913Z,5.31
2023-01-05T10:32:49.384Z,5.21
2023-01-05T10:33:41.698Z,5.33
2023-01-05T10:34:38.938Z,5.33
2023-01-05T10:36:00.260Z,5.36
2023-01-05T10:37:38.975Z,5.53
2023-01-05T10:38:38.968Z,5.48
2023-01-05T10:39:38.968Z,5.54
2023-01-05T10:40:38.981Z,5.56
2023-01-05T10:41:38.989Z,5.56
2023-01-05T10:42:39.002Z,5.61
2023-01-05T10:43:39.012Z,5.64
2023-01-05T10:44:39.073Z,5.54
2023-01-05T10:45:57.356Z,5.51
2023-01-05T10:46:42.833Z,5.58
2023-01-05T10:47:39.141Z,5.54
2023-01-05T10:48:39.040Z,5.51
2023-01-05T10:49:39.042Z,5.54
2023-01-05T10:50:39.056Z,5.61
2023-01-05T10:51:39.063Z,5.64
2023-01-05T10:52:39.076Z,5.61
2023-01-05T10:53:39.223Z,5.64
2023-01-05T10:54:39.090Z,5.68
2023-01-05T10:55:39.095Z,5.53
2023-01-05T10:56:39.110Z,5.64
2023-01-05T10:57:39.131Z,5.60
2023-01-05T10:58:39.117Z,5.64
2023-01-05T10:59:39.171Z,5.64
2023-01-05T11:00:39.135Z,5.68
2023-01-05T11:01:39.267Z,5.60
2023-01-05T11:02:39.301Z,5.64
2023-01-05T11:04:23.755Z,5.63
2023-01-05T11:04:39.238Z,5.76
2023-01-05T11:05:39.164Z,5.76
2023-01-05T11:06:39.176Z,5.85
2023-01-05T11:07:39.183Z,5.90
2023-01-05T11:08:39.194Z,5.99
2023-01-05T11:09:39.334Z,6.00
2023-01-05T11:10:39.221Z,5.81
2023-01-05T11:11:39.214Z,5.90
2023-01-05T11:12:39.228Z,5.85
2023-01-05T11:13:39.229Z,5.97
2023-01-05T11:14:39.243Z,6.03
2023-01-05T11:15:39.335Z,6.09
2023-01-05T11:16:39.265Z,6.64
2023-01-05T11:17:39.258Z,6.97
2023-01-05T11:18:39.271Z,6.88
2023-01-05T11:19:39.274Z,6.77
2023-01-05T11:20:39.285Z,6.76
2023-01-05T11:21:39.290Z,6.85
2023-01-05T11:22:39.310Z,6.89
2023-01-05T11:23:39.310Z,6.85
2023-01-05T11:24:39.320Z,6.84
2023-01-05T11:25:39.441Z,6.64
2023-01-05T11:26:39.333Z,6.52
2023-01-05T11:27:39.339Z,6.30
2023-01-05T11:28:39.354Z,6.51
2023-01-05T11:29:39.355Z,6.64
2023-01-05T11:30:39.390Z,6.88
2023-01-05T11:31:39.382Z,6.98
2023-01-05T11:32:39.388Z,7.12
2023-01-05T11:33:39.405Z,7.55
2023-01-05T11:34:39.406Z,7.72
2023-01-05T11:35:39.442Z,7.79
2023-01-05T11:36:39.414Z,7.95
2023-01-05T11:37:39.424Z,8.10
2023-01-05T11:38:39.430Z,8.48
2023-01-05T11:39:39.437Z,8.58
2023-01-05T11:40:39.450Z,8.58
2023-01-05T11:41:39.681Z,8.38
2023-01-05T11:42:39.471Z,8.37
2023-01-05T11:43:39.573Z,8.50
2023-01-05T11:44:39.490Z,8.52
2023-01-05T11:45:39.490Z,8.52
2023-01-05T11:46:39.583Z,8.00
2023-01-05T11:47:43.836Z,7.80
2023-01-05T11:48:39.524Z,8.23
2023-01-05T11:49:39.527Z,8.28
2023-01-05T11:50:39.555Z,8.65
2023-01-05T11:51:39.561Z,9.01
2023-01-05T11:52:39.574Z,8.73
2023-01-05T11:53:39.565Z,8.74
2023-01-05T11:54:39.582Z,8.95
2023-01-05T11:55:39.588Z,9.35
2023-01-05T11:56:39.644Z,9.86
2023-01-05T11:57:39.719Z,9.99
2023-01-05T11:58:39.618Z,10.04
2023-01-05T11:59:39.627Z,10.01
2023-01-05T12:00:39.671Z,9.66
2023-01-05T12:01:39.718Z,9.32
2023-01-05T12:02:39.740Z,9.23
2023-01-05T12:03:39.698Z,9.36
2023-01-05T12:04:39.681Z,8.74
2023-01-05T12:05:39.691Z,8.56
2023-01-05T12:06:39.699Z,8.00
2023-01-05T12:07:39.718Z,8.15
2023-01-05T12:08:39.727Z,7.97
2023-01-05T12:09:39.775Z,8.05
2023-01-05T12:10:39.752Z,7.69
2023-01-05T12:11:39.745Z,7.68
2023-01-05T12:12:39.910Z,8.00
2023-01-05T12:13:39.876Z,8.00
2023-01-05T12:14:39.776Z,8.15
2023-01-05T12:15:39.814Z,8.48
2023-01-05T12:16:39.813Z,8.26
2023-01-05T12:17:39.810Z,8.18
2023-01-05T12:18:39.917Z,8.20
2023-01-05T12:19:39.845Z,7.98
2023-01-05T12:20:39.839Z,8.00
2023-01-05T12:21:39.879Z,8.11
2023-01-05T12:22:39.861Z,8.15
2023-01-05T12:23:39.953Z,8.34
2023-01-05T12:24:39.889Z,8.47
2023-01-05T12:25:39.893Z,8.59
2023-01-05T12:26:39.906Z,8.55
2023-01-05T12:27:39.923Z,8.53
2023-01-05T12:28:42.151Z,8.43
2023-01-05T12:34:39.978Z,9.26
2023-01-05T12:35:40.022Z,9.26
2023-01-05T12:36:40.006Z,9.17
2023-01-05T12:37:40.066Z,8.83
2023-01-05T12:38:40.041Z,9.17
2023-01-05T12:39:40.036Z,9.46
2023-01-05T12:40:40.050Z,9.68
2023-01-05T12:41:40.104Z,9.75
2023-01-05T12:42:40.062Z,9.60
2023-01-05T12:43:40.080Z,9.90
2023-01-05T12:44:40.087Z,10.05
2023-01-05T12:45:40.215Z,10.45
2023-01-05T12:46:40.204Z,10.59
2023-01-05T12:47:40.119Z,10.48
2023-01-05T12:48:40.128Z,10.15
2023-01-05T12:49:40.149Z,10.17
2023-01-05T12:50:40.148Z,9.99
2023-01-05T12:51:40.169Z,9.81
2023-01-05T12:52:40.175Z,9.89
2023-01-05T12:53:40.193Z,10.08
2023-01-05T12:54:40.195Z,10.38
2023-01-05T12:55:40.233Z,10.34
2023-01-05T12:56:40.225Z,10.29
2023-01-05T12:57:40.243Z,10.52
2023-01-05T12:58:40.245Z,10.40
2023-01-05T12:59:40.263Z,10.68
2023-01-05T13:00:40.335Z,10.94
2023-01-05T13:01:40.590Z,11.36
2023-01-05T13:02:40.463Z,11.15
2023-01-05T13:03:40.302Z,11.40
2023-01-05T13:04:46.228Z,11.47
2023-01-05T13:05:44.471Z,11.83
2023-01-05T13:06:40.335Z,11.82
2023-01-05T13:07:40.350Z,11.54
2023-01-05T13:08:40.363Z,11.58
2023-01-05T13:09:40.374Z,11.82
2023-01-05T13:10:40.382Z,11.82
2023-01-05T13:11:40.401Z,11.65
2023-01-05T13:12:40.442Z,12.13
2023-01-05T13:13:40.421Z,11.98
2023-01-05T13:14:40.432Z,11.57
2023-01-05T13:15:40.722Z,11.85
2023-01-05T13:16:40.611Z,11.58
2023-01-05T13:17:40.598Z,11.25
2023-01-05T13:18:40.481Z,11.22
2023-01-05T13:19:40.501Z,11.04
2023-01-05T13:20:40.507Z,11.02
2023-01-05T13:21:40.523Z,10.79
2023-01-05T13:22:40.599Z,10.33
2023-01-05T13:23:40.549Z,10.12
2023-01-05T13:24:40.561Z,9.87